createdAt,value
2019-03-04T00:01:14.957Z,98759.00
2019-03-04T00:03:46.053Z,98750.00
2019-03-04T00:06:16.635Z,98750.00
2019-03-04T00:08:46.943Z,98756.00
2019-03-04T00:11:17.253Z,98749.00
2019-03-04T00:13:47.549Z,98750.00
2019-03-04T00:16:17.813Z,98771.00
2019-03-04T00:18:48.518Z,98762.00
2019-03-04T00:21:18.810Z,98761.00
2019-03-04T00:23:49.050Z,98749.00
2019-03-04T00:26:19.446Z,98739.00
2019-03-04T00:28:49.650Z,98737.00
2019-03-04T00:31:20.150Z,98726.00
2019-03-04T00:33:50.615Z,98715.00
2019-03-04T00:36:20.804Z,98702.00
2019-03-04T00:38:51.291Z,98722.00
2019-03-04T00:41:21.844Z,98723.00
2019-03-04T00:43:52.353Z,98721.00
2019-03-04T00:46:22.616Z,98701.00
2019-03-04T00:48:53.123Z,98697.00
2019-03-04T00:51:23.522Z,98687.00
2019-03-04T00:53:53.985Z,98676.00
2019-03-04T00:56:24.197Z,98677.00
2019-03-04T00:58:54.449Z,98675.00
2019-03-04T01:01:24.822Z,98664.00
2019-03-04T01:03:55.108Z,98651.00
2019-03-04T01:06:25.369Z,98634.00
2019-03-04T01:08:55.869Z,98629.00
2019-03-04T01:11:26.148Z,98623.00
2019-03-04T01:13:56.657Z,98613.00
2019-03-04T01:16:27.232Z,98610.00
2019-03-04T01:18:58.052Z,98606.00
2019-03-04T01:21:28.265Z,98609.00
2019-03-04T01:23:59.020Z,98601.00
2019-03-04T01:26:29.606Z,98596.00
2019-03-04T01:29:00.519Z,98602.00
2019-03-04T01:31:30.924Z,98590.00
2019-03-04T01:34:01.245Z,98592.00
2019-03-04T01:36:31.467Z,98584.00
2019-03-04T01:39:02.027Z,98571.00
2019-03-04T01:41:32.327Z,98570.00
2019-03-04T01:44:02.573Z,98565.00
2019-03-04T01:46:32.757Z,98567.00
2019-03-04T01:49:03.338Z,98557.00
2019-03-04T01:51:34.111Z,98546.00
2019-03-04T01:54:04.424Z,98541.00
2019-03-04T01:56:34.967Z,98530.00
2019-03-04T01:59:06.229Z,98514.00
2019-03-04T02:01:36.669Z,98498.00
2019-03-04T02:04:07.210Z,98488.00
2019-03-04T02:06:37.459Z,98486.00
2019-03-04T02:09:08.807Z,98493.00
2019-03-04T02:11:39.345Z,98491.00
2019-03-04T02:14:10.002Z,98487.00
2019-03-04T02:16:40.406Z,98481.00
2019-03-04T02:19:11.014Z,98497.00
2019-03-04T02:21:41.254Z,98480.00
2019-03-04T02:24:26.281Z,98473.00
2019-03-04T02:26:59.199Z,98457.00
2019-03-04T02:29:29.489Z,98461.00
2019-03-04T02:31:59.970Z,98448.00
2019-03-04T02:34:30.910Z,98435.00
2019-03-04T02:37:01.163Z,98420.00
2019-03-04T02:39:31.642Z,98419.00
2019-03-04T02:42:01.996Z,98401.00
2019-03-04T02:44:32.312Z,98390.00
2019-03-04T02:47:02.694Z,98385.00
2019-03-04T02:49:32.961Z,98380.00
2019-03-04T02:52:03.535Z,98384.00
2019-03-04T02:54:33.983Z,98386.00
2019-03-04T02:57:04.439Z,98405.00
2019-03-04T02:59:34.678Z,98403.00
2019-03-04T03:02:06.489Z,98394.00
2019-03-04T03:04:36.858Z,98372.00
2019-03-04T03:07:07.565Z,98350.00
2019-03-04T03:09:37.883Z,98359.00
2019-03-04T03:12:08.342Z,98344.00
2019-03-04T03:14:38.507Z,98333.00
2019-03-04T03:17:09.089Z,98311.00
2019-03-04T03:19:39.518Z,98308.00
2019-03-04T03:22:09.776Z,98317.00
2019-03-04T03:24:40.543Z,98293.00
2019-03-04T03:27:11.044Z,98295.00
2019-03-04T03:29:44.843Z,98293.00
2019-03-04T03:32:15.427Z,98289.00
2019-03-04T03:34:45.742Z,98282.00
2019-03-04T03:37:16.071Z,98279.00
2019-03-04T03:39:46.345Z,98262.00
2019-03-04T03:42:19.003Z,98250.00
2019-03-04T03:44:48.717Z,98247.00
2019-03-04T03:47:19.012Z,98222.00
2019-03-04T03:49:49.313Z,98230.00
2019-03-04T03:52:19.554Z,98201.00
2019-03-04T03:54:49.982Z,98187.00
2019-03-04T03:57:20.291Z,98198.00
2019-03-04T03:59:50.587Z,98186.00
2019-03-04T04:02:21.168Z,98201.00
2019-03-04T04:04:57.609Z,98206.00
2019-03-04T04:07:27.930Z,98192.00
2019-03-04T04:09:58.313Z,98176.00
2019-03-04T04:12:29.356Z,98181.00
2019-03-04T04:14:59.542Z,98179.00
2019-03-04T04:17:29.839Z,98175.00
2019-03-04T04:20:00.451Z,98182.00
2019-03-04T04:22:31.035Z,98159.00
2019-03-04T04:25:01.435Z,98165.00
2019-03-04T04:27:31.952Z,98158.00
2019-03-04T04:30:02.416Z,98132.00
2019-03-04T04:32:32.741Z,98102.00
2019-03-04T04:35:03.030Z,98097.00
2019-03-04T04:37:33.579Z,98101.00
2019-03-04T04:40:03.871Z,98102.00
2019-03-04T04:42:34.198Z,98094.00
2019-03-04T04:45:04.679Z,98061.00
2019-03-04T04:47:35.407Z,98061.00
2019-03-04T04:50:07.141Z,98039.00
2019-03-04T04:52:37.715Z,98011.00
2019-03-04T04:55:08.122Z,98008.00
2019-03-04T04:57:38.299Z,98006.00
2019-03-04T05:00:12.732Z,97995.00
2019-03-04T05:02:43.269Z,97995.00
2019-03-04T05:05:14.263Z,97978.00
2019-03-04T05:07:44.791Z,97976.00
2019-03-04T05:10:17.509Z,97960.00
2019-03-04T05:12:48.768Z,97981.00
2019-03-04T05:15:19.443Z,97978.00
2019-03-04T05:17:51.795Z,97978.00
2019-03-04T05:20:22.722Z,97972.00
2019-03-04T05:22:52.999Z,97977.00
2019-03-04T05:25:26.308Z,97957.00
2019-03-04T05:27:56.422Z,97945.00
2019-03-04T05:30:26.867Z,97945.00
2019-03-04T05:33:00.183Z,97948.00
2019-03-04T05:35:30.372Z,97911.00
2019-03-04T05:38:00.592Z,97925.00
2019-03-04T05:40:30.888Z,97915.00
2019-03-04T05:43:01.125Z,97918.00
2019-03-04T05:45:31.423Z,97916.00
2019-03-04T05:48:01.674Z,97904.00
2019-03-04T05:50:32.005Z,97899.00
2019-03-04T05:53:02.486Z,97891.00
2019-03-04T05:55:32.777Z,97883.00
2019-03-04T05:58:03.333Z,97892.00
2019-03-04T06:00:38.576Z,97867.00
2019-03-04T06:03:09.468Z,97867.00
2019-03-04T06:05:39.742Z,97867.00
2019-03-04T06:08:10.387Z,97879.00
2019-03-04T06:10:40.799Z,97868.00
2019-03-04T06:13:11.059Z,97884.00
2019-03-04T06:15:41.687Z,97868.00
2019-03-04T06:18:11.962Z,97861.00
2019-03-04T06:20:42.612Z,97841.00
2019-03-04T06:23:13.501Z,97839.00
2019-03-04T06:25:50.062Z,97837.00
2019-03-04T06:28:20.476Z,97833.00
2019-03-04T06:30:50.840Z,97833.00
2019-03-04T06:33:21.146Z,97821.00
2019-03-04T06:35:51.423Z,97822.00
2019-03-04T06:38:21.994Z,97785.00
2019-03-04T06:40:52.508Z,97784.00
2019-03-04T06:43:24.169Z,97784.00
2019-03-04T06:45:54.625Z,97804.00
2019-03-04T06:48:25.275Z,97833.00
2019-03-04T06:50:56.733Z,97831.00
2019-03-04T06:54:08.402Z,97845.00
2019-03-04T06:56:50.881Z,97844.00
2019-03-04T06:59:42.196Z,97835.00
2019-03-04T07:02:14.358Z,97856.00
2019-03-04T07:05:19.737Z,97863.00
2019-03-04T07:07:50.128Z,97849.00
2019-03-04T07:10:20.612Z,97854.00
2019-03-04T07:12:50.986Z,97877.00
2019-03-04T07:15:21.338Z,97873.00
2019-03-04T07:17:51.772Z,97894.00
2019-03-04T07:20:22.268Z,97902.00
2019-03-04T07:22:53.738Z,97876.00
2019-03-04T07:25:24.145Z,97879.00
2019-03-04T07:27:55.598Z,97902.00
2019-03-04T07:30:26.447Z,97886.00
2019-03-04T07:32:56.566Z,97881.00
2019-03-04T07:35:27.009Z,97943.00
2019-03-04T07:38:46.931Z,97904.00
2019-03-04T07:41:17.524Z,97885.00
2019-03-04T07:43:47.811Z,97904.00
2019-03-04T07:46:20.222Z,97874.00
2019-03-04T07:48:53.125Z,97885.00
2019-03-04T07:51:24.218Z,97863.00
2019-03-04T07:53:54.513Z,97843.00
2019-03-04T07:56:25.473Z,97856.00
2019-03-04T07:58:55.753Z,97913.00
2019-03-04T08:01:26.567Z,97904.00
2019-03-04T08:03:56.726Z,97900.00
2019-03-04T08:06:27.680Z,97907.00
2019-03-04T08:10:00.968Z,97909.00
2019-03-04T08:13:20.268Z,97918.00
2019-03-04T08:15:54.433Z,97898.00
2019-03-04T08:18:25.091Z,97925.00
2019-03-04T08:20:55.414Z,97929.00
2019-03-04T08:23:26.052Z,97975.00
2019-03-04T08:25:58.148Z,98018.00
2019-03-04T08:28:29.362Z,98016.00
2019-03-04T08:30:59.902Z,98007.00
2019-03-04T08:33:30.315Z,97986.00
2019-03-04T08:36:00.666Z,97985.00
2019-03-04T08:38:36.369Z,97983.00
2019-03-04T08:41:06.753Z,97996.00
2019-03-04T08:43:38.111Z,97999.00
2019-03-04T08:46:08.363Z,97975.00
2019-03-04T08:48:38.679Z,97987.00
2019-03-04T08:51:09.480Z,97994.00
2019-03-04T08:53:39.997Z,97986.00
2019-03-04T08:56:12.311Z,98022.00
2019-03-04T08:58:42.340Z,98018.00
2019-03-04T09:01:12.740Z,98000.00
2019-03-04T09:03:43.710Z,97975.00
2019-03-04T09:06:15.681Z,97961.00
2019-03-04T09:08:46.033Z,97960.00
2019-03-04T09:11:16.758Z,97968.00
2019-03-04T09:13:47.143Z,97960.00
2019-03-04T09:16:17.862Z,97954.00
2019-03-04T09:18:48.243Z,97957.00
2019-03-04T09:21:18.580Z,97950.00
2019-03-04T09:23:50.042Z,97950.00
2019-03-04T09:26:21.077Z,97954.00
2019-03-04T09:28:52.157Z,97967.00
2019-03-04T09:31:22.506Z,97943.00
2019-03-04T09:33:52.859Z,97944.00
2019-03-04T09:36:23.581Z,97935.00
2019-03-04T09:39:01.771Z,97940.00
2019-03-04T09:41:32.113Z,97929.00
2019-03-04T09:44:02.405Z,97913.00
2019-03-04T09:46:32.715Z,97947.00
2019-03-04T09:49:03.093Z,97925.00
2019-03-04T09:51:33.657Z,97915.00
2019-03-04T09:54:03.979Z,97920.00
2019-03-04T09:56:36.675Z,97917.00
2019-03-04T09:59:06.989Z,97918.00
2019-03-04T10:02:02.838Z,97912.00
2019-03-04T10:05:42.140Z,97915.00
2019-03-04T10:08:43.795Z,97918.00
2019-03-04T10:11:55.288Z,97909.00
2019-03-04T10:15:41.300Z,97887.00
2019-03-04T10:19:14.481Z,97915.00
2019-03-04T10:21:59.986Z,97902.00
2019-03-04T10:25:11.660Z,97921.00
2019-03-04T10:28:20.804Z,97906.00
2019-03-04T10:31:54.155Z,97901.00
2019-03-04T10:35:21.769Z,97902.00
2019-03-04T10:38:54.801Z,97907.00
2019-03-04T10:42:36.404Z,97942.00
2019-03-04T10:46:00.169Z,97896.00
2019-03-04T10:48:33.245Z,97926.00
2019-03-04T10:51:03.573Z,97926.00
2019-03-04T10:53:34.236Z,97919.00
2019-03-04T10:56:04.556Z,97941.00
2019-03-04T10:58:34.878Z,97911.00
2019-03-04T11:01:06.645Z,97964.00
2019-03-04T11:03:36.889Z,97961.00
2019-03-04T11:06:07.159Z,97992.00
2019-03-04T11:08:38.917Z,98022.00
2019-03-04T11:11:09.188Z,98033.00
2019-03-04T11:13:39.497Z,98045.00
2019-03-04T11:16:09.805Z,98034.00
2019-03-04T11:18:39.983Z,98043.00
2019-03-04T11:21:10.352Z,98047.00
2019-03-04T11:23:41.264Z,98057.00
2019-03-04T11:26:11.879Z,98039.00
2019-03-04T11:28:42.143Z,98070.00
2019-03-04T11:31:13.480Z,98058.00
2019-03-04T11:33:43.779Z,98085.00
2019-03-04T11:36:14.169Z,98074.00
2019-03-04T11:38:47.962Z,98067.00
2019-03-04T11:41:21.498Z,98063.00
2019-03-04T11:43:51.963Z,98067.00
2019-03-04T11:46:24.197Z,98058.00
2019-03-04T11:48:54.811Z,98069.00
2019-03-04T11:51:26.019Z,98073.00
2019-03-04T11:53:56.339Z,98070.00
2019-03-04T11:56:26.705Z,98089.00
2019-03-04T11:58:57.129Z,98084.00
2019-03-04T12:01:37.124Z,98082.00
2019-03-04T12:04:07.687Z,98089.00
2019-03-04T12:06:39.229Z,98089.00
2019-03-04T12:09:17.608Z,98087.00
2019-03-04T12:11:57.649Z,98091.00
2019-03-04T12:14:32.957Z,98099.00
2019-03-04T12:17:03.868Z,98103.00
2019-03-04T12:19:43.640Z,98109.00
2019-03-04T12:22:17.597Z,98116.00
2019-03-04T12:24:53.634Z,98133.00
2019-03-04T12:27:24.182Z,98136.00
2019-03-04T12:29:54.568Z,98136.00
2019-03-04T12:32:30.915Z,98149.00
2019-03-04T12:35:03.567Z,98137.00
2019-03-04T12:37:33.881Z,98144.00
2019-03-04T12:40:06.167Z,98156.00
2019-03-04T12:42:36.523Z,98148.00
2019-03-04T12:45:10.921Z,98148.00
2019-03-04T12:47:41.936Z,98162.00
2019-03-04T12:50:17.937Z,98161.00
2019-03-04T12:52:48.296Z,98159.00
2019-03-04T12:55:20.363Z,98166.00
2019-03-04T12:57:51.567Z,98152.00
2019-03-04T13:00:24.478Z,98174.00
2019-03-04T13:02:57.959Z,98183.00
2019-03-04T13:05:27.170Z,98190.00
2019-03-04T13:07:57.746Z,98175.00
2019-03-04T13:10:28.044Z,98168.00
2019-03-04T13:12:59.713Z,98180.00
2019-03-04T13:15:31.295Z,98189.00
2019-03-04T13:18:01.557Z,98194.00
2019-03-04T13:20:32.114Z,98198.00
2019-03-04T13:23:02.283Z,98213.00
2019-03-04T13:25:32.953Z,98204.00
2019-03-04T13:28:08.233Z,98216.00
2019-03-04T13:30:35.877Z,98215.00
2019-03-04T13:33:06.755Z,98223.00
2019-03-04T13:35:37.431Z,98214.00
2019-03-04T13:38:07.904Z,98221.00
2019-03-04T13:40:38.409Z,98227.00
2019-03-04T13:43:08.775Z,98228.00
2019-03-04T13:45:39.345Z,98232.00
2019-03-04T13:48:09.586Z,98233.00
2019-03-04T13:50:41.869Z,98238.00
2019-03-04T13:53:12.394Z,98253.00
2019-03-04T13:55:42.946Z,98246.00
2019-03-04T13:58:13.293Z,98251.00
2019-03-04T14:00:45.393Z,98261.00
2019-03-04T14:03:15.728Z,98262.00
2019-03-04T14:05:46.363Z,98256.00
2019-03-04T14:08:19.491Z,98290.00
2019-03-04T14:10:51.141Z,98286.00
2019-03-04T14:13:21.706Z,98306.00
2019-03-04T14:15:52.279Z,98297.00
2019-03-04T14:18:22.872Z,98299.00
2019-03-04T14:20:53.143Z,98305.00
2019-03-04T14:23:23.457Z,98323.00
2019-03-04T14:25:55.014Z,98336.00
2019-03-04T14:28:25.542Z,98331.00
2019-03-04T14:30:56.509Z,98348.00
2019-03-04T14:33:30.299Z,98338.00
2019-03-04T14:36:00.608Z,98344.00
2019-03-04T14:38:30.915Z,98345.00
2019-03-04T14:41:01.520Z,98341.00
2019-03-04T14:43:32.758Z,98358.00
2019-03-04T14:46:03.465Z,98367.00
2019-03-04T14:48:33.938Z,98373.00
2019-03-04T14:51:04.680Z,98388.00
2019-03-04T14:53:52.210Z,98384.00
2019-03-04T14:56:23.318Z,98383.00
2019-03-04T14:59:09.794Z,98391.00
2019-03-04T15:01:26.297Z,98391.00
2019-03-04T15:03:56.571Z,98396.00
2019-03-04T15:06:26.971Z,98404.00
2019-03-04T15:08:57.829Z,98418.00
2019-03-04T15:11:28.478Z,98402.00
2019-03-04T15:13:58.945Z,98421.00
2019-03-04T15:16:31.151Z,98408.00
2019-03-04T15:19:01.483Z,98431.00
2019-03-04T15:21:33.217Z,98432.00
2019-03-04T15:24:03.740Z,98434.00
2019-03-04T15:26:41.771Z,98450.00
2019-03-04T15:29:07.286Z,98458.00
2019-03-04T15:31:37.632Z,98457.00
2019-03-04T15:34:08.124Z,98462.00
2019-03-04T15:36:38.689Z,98466.00
2019-03-04T15:39:22.965Z,98457.00
2019-03-04T15:41:50.253Z,98472.00
2019-03-04T15:44:20.726Z,98480.00
2019-03-04T15:46:51.542Z,98470.00
2019-03-04T15:49:22.063Z,98469.00
2019-03-04T15:51:52.719Z,98488.00
2019-03-04T15:54:23.000Z,98503.00
2019-03-04T15:56:53.289Z,98496.00
2019-03-04T15:59:23.997Z,98503.00
2019-03-04T16:02:07.609Z,98512.00
2019-03-04T16:04:37.916Z,98543.00
2019-03-04T16:07:09.608Z,98524.00
2019-03-04T16:09:40.808Z,98511.00
2019-03-04T16:12:14.479Z,98549.00
2019-03-04T16:14:44.971Z,98550.00
2019-03-04T16:17:15.926Z,98562.00
2019-03-04T16:19:46.127Z,98563.00
2019-03-04T16:22:17.377Z,98569.00
2019-03-04T16:24:49.227Z,98569.00
2019-03-04T16:27:19.565Z,98568.00
2019-03-04T16:29:50.190Z,98572.00
2019-03-04T16:32:20.716Z,98588.00
2019-03-04T16:34:50.994Z,98592.00
2019-03-04T16:37:21.954Z,98593.00
2019-03-04T16:39:52.967Z,98598.00
2019-03-04T16:42:23.842Z,98591.00
2019-03-04T16:44:57.528Z,98615.00
2019-03-04T16:47:27.837Z,98610.00
2019-03-04T16:49:58.530Z,98627.00
2019-03-04T16:52:31.530Z,98616.00
2019-03-04T16:55:02.512Z,98626.00
2019-03-04T16:57:33.043Z,98631.00
2019-03-04T17:00:03.446Z,98637.00
2019-03-04T17:02:34.143Z,98646.00
2019-03-04T17:05:05.251Z,98643.00
2019-03-04T17:07:35.553Z,98654.00
2019-03-04T17:10:06.950Z,98647.00
2019-03-04T17:12:37.258Z,98655.00
2019-03-04T17:15:09.040Z,98667.00
2019-03-04T17:17:39.329Z,98664.00
2019-03-04T17:20:11.511Z,98659.00
2019-03-04T17:22:46.507Z,98676.00
2019-03-04T17:25:17.520Z,98687.00
2019-03-04T17:27:48.212Z,98695.00
2019-03-04T17:30:19.570Z,98693.00
2019-03-04T17:32:49.883Z,98700.00
2019-03-04T17:35:20.206Z,98715.00
2019-03-04T17:37:50.478Z,98713.00
2019-03-04T17:40:21.023Z,98730.00
2019-03-04T17:42:51.283Z,98738.00
2019-03-04T17:45:21.625Z,98739.00
2019-03-04T17:47:51.961Z,98760.00
2019-03-04T17:50:33.080Z,98741.00
2019-03-04T17:53:04.495Z,98746.00
2019-03-04T17:55:34.940Z,98767.00
2019-03-04T17:58:05.559Z,98758.00
2019-03-04T18:00:38.728Z,98761.00
2019-03-04T18:03:09.946Z,98768.00
2019-03-04T18:05:40.539Z,98794.00
2019-03-04T18:08:11.904Z,98799.00
2019-03-04T18:10:42.472Z,98800.00
2019-03-04T18:13:13.488Z,98810.00
2019-03-04T18:15:43.764Z,98803.00
2019-03-04T18:18:14.385Z,98802.00
2019-03-04T18:20:44.726Z,98808.00
2019-03-04T18:23:15.134Z,98825.00
2019-03-04T18:25:56.443Z,98820.00
2019-03-04T18:29:19.166Z,98830.00
2019-03-04T18:32:51.458Z,98831.00
2019-03-04T18:36:27.981Z,98833.00
2019-03-04T18:39:40.950Z,98838.00
2019-03-04T18:43:06.385Z,98843.00
2019-03-04T18:46:26.213Z,98854.00
2019-03-04T18:49:01.769Z,98851.00
2019-03-04T18:51:34.119Z,98845.00
2019-03-04T18:54:14.626Z,98851.00
2019-03-04T18:56:45.207Z,98854.00
2019-03-04T18:59:16.229Z,98859.00
2019-03-04T19:01:50.790Z,98868.00
2019-03-04T19:04:21.101Z,98860.00
2019-03-04T19:06:51.443Z,98872.00
2019-03-04T19:09:21.744Z,98872.00
2019-03-04T19:11:52.632Z,98866.00
2019-03-04T19:14:22.782Z,98870.00
2019-03-04T19:16:55.499Z,98873.00
2019-03-04T19:19:25.856Z,98876.00
2019-03-04T19:21:56.486Z,98883.00
2019-03-04T19:24:27.171Z,98895.00
2019-03-04T19:26:57.581Z,98886.00
2019-03-04T19:29:36.437Z,98896.00
2019-03-04T19:32:06.867Z,98887.00
2019-03-04T19:34:37.230Z,98898.00
2019-03-04T19:37:10.903Z,98888.00
2019-03-04T19:39:41.243Z,98885.00
2019-03-04T19:42:11.586Z,98882.00
2019-03-04T19:44:42.218Z,98885.00
2019-03-04T19:47:12.538Z,98887.00
2019-03-04T19:49:42.927Z,98883.00
2019-03-04T19:52:13.140Z,98889.00
2019-03-04T19:54:44.498Z,98893.00
2019-03-04T19:57:24.338Z,98891.00
2019-03-04T19:59:55.158Z,98902.00
2019-03-04T20:02:26.746Z,98900.00
2019-03-04T20:04:57.099Z,98901.00
2019-03-04T20:07:27.392Z,98900.00
2019-03-04T20:09:58.717Z,98900.00
2019-03-04T20:12:28.987Z,98921.00
2019-03-04T20:14:59.598Z,98921.00
2019-03-04T20:17:29.873Z,98924.00
2019-03-04T20:20:00.328Z,98924.00
2019-03-04T20:22:30.721Z,98943.00
2019-03-04T20:25:01.011Z,98932.00
2019-03-04T20:27:31.241Z,98934.00
2019-03-04T20:30:01.541Z,98949.00
2019-03-04T20:32:31.912Z,98934.00
2019-03-04T20:35:02.405Z,98934.00
2019-03-04T20:37:33.730Z,98938.00
2019-03-04T20:40:04.140Z,98928.00
2019-03-04T20:42:34.718Z,98926.00
2019-03-04T20:45:06.119Z,98937.00
2019-03-04T20:47:36.523Z,98938.00
2019-03-04T20:50:10.096Z,98949.00
2019-03-04T20:52:40.622Z,98949.00
2019-03-04T20:55:11.126Z,98937.00
2019-03-04T20:57:52.040Z,98940.00
2019-03-04T21:00:34.099Z,98952.00
2019-03-04T21:03:05.406Z,98968.00
2019-03-04T21:05:37.593Z,98962.00
2019-03-04T21:08:08.434Z,98955.00
2019-03-04T21:10:38.768Z,98956.00
2019-03-04T21:13:15.125Z,98980.00
2019-03-04T21:15:45.724Z,98963.00
2019-03-04T21:18:16.076Z,98961.00
2019-03-04T21:20:52.410Z,98969.00
2019-03-04T21:23:22.800Z,98968.00
2019-03-04T21:26:07.666Z,98976.00
2019-03-04T21:29:30.293Z,98974.00
2019-03-04T21:32:52.848Z,98968.00
2019-03-04T21:36:15.877Z,98972.00
2019-03-04T21:38:45.792Z,98975.00
2019-03-04T21:41:48.062Z,98974.00
2019-03-04T21:44:59.929Z,98970.00
2019-03-04T21:47:35.487Z,98978.00
2019-03-04T21:50:08.347Z,98976.00
2019-03-04T21:53:09.385Z,98976.00
2019-03-04T21:56:06.004Z,98967.00
2019-03-04T21:58:36.356Z,98973.00
2019-03-04T22:01:24.521Z,98981.00
2019-03-04T22:03:55.346Z,98976.00
2019-03-04T22:06:25.771Z,98966.00
2019-03-04T22:08:56.129Z,98979.00
2019-03-04T22:11:26.808Z,98971.00
2019-03-04T22:14:03.938Z,98977.00
2019-03-04T22:16:34.413Z,98982.00
2019-03-04T22:19:04.708Z,98980.00
2019-03-04T22:21:35.059Z,98974.00
2019-03-04T22:24:05.346Z,98973.00
2019-03-04T22:26:36.435Z,98989.00
2019-03-04T22:29:06.733Z,99009.00
2019-03-04T22:31:37.141Z,99011.00
2019-03-04T22:34:08.122Z,99005.00
2019-03-04T22:36:38.510Z,99005.00
2019-03-04T22:39:09.390Z,98997.00
2019-03-04T22:41:40.041Z,99009.00
2019-03-04T22:44:12.420Z,99023.00
2019-03-04T22:46:42.972Z,99001.00
2019-03-04T22:49:13.347Z,99007.00
2019-03-04T22:51:43.658Z,99017.00
2019-03-04T22:54:15.176Z,99012.00
2019-03-04T22:56:45.480Z,99007.00
2019-03-04T22:59:15.777Z,98999.00
2019-03-04T23:02:06.701Z,99004.00
2019-03-04T23:05:06.985Z,99006.00
2019-03-04T23:07:51.325Z,99019.00
2019-03-04T23:10:45.591Z,99009.00
2019-03-04T23:13:56.920Z,99012.00
2019-03-04T23:16:30.946Z,99030.00
2019-03-04T23:19:01.947Z,99030.00
2019-03-04T23:21:32.725Z,99020.00
2019-03-04T23:24:03.127Z,99029.00
2019-03-04T23:26:34.545Z,99027.00
2019-03-04T23:29:05.040Z,99025.00
2019-03-04T23:31:36.503Z,99026.00
2019-03-04T23:34:06.823Z,99031.00
2019-03-04T23:36:37.730Z,99023.00
2019-03-04T23:39:09.326Z,99029.00
2019-03-04T23:41:39.842Z,99020.00
2019-03-04T23:44:10.472Z,99021.00
2019-03-04T23:46:40.957Z,99022.00
2019-03-04T23:49:11.216Z,99025.00
2019-03-04T23:51:41.496Z,99040.00
2019-03-04T23:54:12.904Z,99047.00
2019-03-04T23:56:43.766Z,99036.00
2019-03-04T23:59:14.586Z,99026.00
